sensor_id;sensor_type;location;lat;lon;timestamp;temperature;humidity
1361;DHT22;674;45.552;-122.600;2023-07-31T00:00:58;25.80;1.00
1361;DHT22;674;45.552;-122.600;2023-07-31T00:03:27;25.80;1.00
1361;DHT22;674;45.552;-122.600;2023-07-31T00:05:55;25.80;1.00
1361;DHT22;674;45.552;-122.600;2023-07-31T00:08:24;25.90;1.00
1361;DHT22;674;45.552;-122.600;2023-07-31T00:10:53;25.80;1.00
1361;DHT22;674;45.552;-122.600;2023-07-31T00:13:21;25.80;1.00
1361;DHT22;674;45.552;-122.600;2023-07-31T00:15:50;25.80;1.00
1361;DHT22;674;45.552;-122.600;2023-07-31T00:18:19;25.80;1.00
1361;DHT22;674;45.552;-122.600;2023-07-31T00:20:47;25.80;1.00
1361;DHT22;674;45.552;-122.600;2023-07-31T00:23:16;25.80;1.00
1361;DHT22;674;45.552;-122.600;2023-07-31T00:25:44;25.80;1.00
1361;DHT22;674;45.552;-122.600;2023-07-31T00:28:13;25.80;1.00
1361;DHT22;674;45.552;-122.600;2023-07-31T00:30:41;25.80;1.00
1361;DHT22;674;45.552;-122.600;2023-07-31T00:33:10;25.80;1.00
1361;DHT22;674;45.552;-122.600;2023-07-31T00:35:38;25.80;1.00
1361;DHT22;674;45.552;-122.600;2023-07-31T00:38:07;25.70;1.00
1361;DHT22;674;45.552;-122.600;2023-07-31T00:40:36;25.70;1.00
1361;DHT22;674;45.552;-122.600;2023-07-31T00:43:05;25.70;1.00
1361;DHT22;674;45.552;-122.600;2023-07-31T00:45:34;25.70;1.00
1361;DHT22;674;45.552;-122.600;2023-07-31T00:48:03;25.70;1.00
1361;DHT22;674;45.552;-122.600;2023-07-31T00:50:35;25.70;1.00
1361;DHT22;674;45.552;-122.600;2023-07-31T00:53:04;25.70;1.00
1361;DHT22;674;45.552;-122.600;2023-07-31T00:55:33;25.70;1.00
1361;DHT22;674;45.552;-122.600;2023-07-31T00:58:01;25.80;1.00
1361;DHT22;674;45.552;-122.600;2023-07-31T01:00:30;25.80;1.00
1361;DHT22;674;45.552;-122.600;2023-07-31T01:02:59;25.80;1.00
1361;DHT22;674;45.552;-122.600;2023-07-31T01:05:43;25.80;1.00
1361;DHT22;674;45.552;-122.600;2023-07-31T01:11:29;25.70;1.00
1361;DHT22;674;45.552;-122.600;2023-07-31T01:13:57;25.70;1.00
1361;DHT22;674;45.552;-122.600;2023-07-31T01:16:26;25.60;1.00
1361;DHT22;674;45.552;-122.600;2023-07-31T01:18:54;25.60;1.00
1361;DHT22;674;45.552;-122.600;2023-07-31T01:21:48;25.60;1.00
1361;DHT22;674;45.552;-122.600;2023-07-31T01:24:23;25.60;1.00
1361;DHT22;674;45.552;-122.600;2023-07-31T01:27:04;25.50;1.00
1361;DHT22;674;45.552;-122.600;2023-07-31T01:32:12;25.50;1.00
1361;DHT22;674;45.552;-122.600;2023-07-31T01:34:42;25.50;1.00
1361;DHT22;674;45.552;-122.600;2023-07-31T01:37:11;25.50;1.00
1361;DHT22;674;45.552;-122.600;2023-07-31T01:39:39;25.50;1.00
1361;DHT22;674;45.552;-122.600;2023-07-31T01:42:07;25.50;1.00
1361;DHT22;674;45.552;-122.600;2023-07-31T01:44:36;25.40;1.00
1361;DHT22;674;45.552;-122.600;2023-07-31T01:47:05;25.40;1.00
1361;DHT22;674;45.552;-122.600;2023-07-31T01:49:33;25.40;1.00
1361;DHT22;674;45.552;-122.600;2023-07-31T01:52:02;25.40;1.00
1361;DHT22;674;45.552;-122.600;2023-07-31T01:54:31;25.30;1.00
1361;DHT22;674;45.552;-122.600;2023-07-31T01:56:59;25.20;1.00
1361;DHT22;674;45.552;-122.600;2023-07-31T01:59:28;25.30;1.00
1361;DHT22;674;45.552;-122.600;2023-07-31T02:01:57;25.30;1.00
1361;DHT22;674;45.552;-122.600;2023-07-31T02:04:25;25.30;1.00
1361;DHT22;674;45.552;-122.600;2023-07-31T02:06:54;25.20;1.00
1361;DHT22;674;45.552;-122.600;2023-07-31T02:09:22;25.20;1.00
1361;DHT22;674;45.552;-122.600;2023-07-31T02:11:51;25.20;1.00
1361;DHT22;674;45.552;-122.600;2023-07-31T02:14:19;25.30;1.00
1361;DHT22;674;45.552;-122.600;2023-07-31T02:16:48;25.20;1.00
1361;DHT22;674;45.552;-122.600;2023-07-31T02:19:16;25.20;1.00
1361;DHT22;674;45.552;-122.600;2023-07-31T02:21:45;25.10;1.00
1361;DHT22;674;45.552;-122.600;2023-07-31T02:24:14;25.10;1.00
1361;DHT22;674;45.552;-122.600;2023-07-31T02:26:43;25.10;1.00
1361;DHT22;674;45.552;-122.600;2023-07-31T02:29:11;25.00;1.00
1361;DHT22;674;45.552;-122.600;2023-07-31T02:31:40;25.00;1.00
1361;DHT22;674;45.552;-122.600;2023-07-31T02:34:08;25.00;1.00
1361;DHT22;674;45.552;-122.600;2023-07-31T02:36:37;25.00;1.00
1361;DHT22;674;45.552;-122.600;2023-07-31T02:39:06;24.90;1.00
1361;DHT22;674;45.552;-122.600;2023-07-31T02:41:34;24.80;1.00
1361;DHT22;674;45.552;-122.600;2023-07-31T02:44:03;24.70;1.00
1361;DHT22;674;45.552;-122.600;2023-07-31T02:46:34;24.70;1.00
1361;DHT22;674;45.552;-122.600;2023-07-31T02:49:04;24.60;1.00
1361;DHT22;674;45.552;-122.600;2023-07-31T02:51:32;24.40;1.00
1361;DHT22;674;45.552;-122.600;2023-07-31T02:54:02;24.50;1.00
1361;DHT22;674;45.552;-122.600;2023-07-31T02:56:31;24.40;1.00
1361;DHT22;674;45.552;-122.600;2023-07-31T02:59:00;24.30;1.00
1361;DHT22;674;45.552;-122.600;2023-07-31T03:01:28;24.10;1.00
1361;DHT22;674;45.552;-122.600;2023-07-31T03:03:57;24.10;1.00
1361;DHT22;674;45.552;-122.600;2023-07-31T03:06:25;24.00;1.00
1361;DHT22;674;45.552;-122.600;2023-07-31T03:08:55;23.90;1.00
1361;DHT22;674;45.552;-122.600;2023-07-31T03:11:23;23.80;1.00
1361;DHT22;674;45.552;-122.600;2023-07-31T03:13:52;23.70;1.00
1361;DHT22;674;45.552;-122.600;2023-07-31T03:16:23;23.70;1.00
1361;DHT22;674;45.552;-122.600;2023-07-31T03:18:52;23.60;1.00
1361;DHT22;674;45.552;-122.600;2023-07-31T03:21:21;23.50;1.00
1361;DHT22;674;45.552;-122.600;2023-07-31T03:23:49;23.50;1.00
1361;DHT22;674;45.552;-122.600;2023-07-31T03:26:21;23.40;1.00
1361;DHT22;674;45.552;-122.600;2023-07-31T03:28:49;23.30;1.00
1361;DHT22;674;45.552;-122.600;2023-07-31T03:31:18;23.20;1.00
1361;DHT22;674;45.552;-122.600;2023-07-31T03:33:52;23.20;1.00
1361;DHT22;674;45.552;-122.600;2023-07-31T03:36:21;23.10;1.00
1361;DHT22;674;45.552;-122.600;2023-07-31T03:38:50;23.10;1.00
1361;DHT22;674;45.552;-122.600;2023-07-31T03:41:19;23.00;1.00
1361;DHT22;674;45.552;-122.600;2023-07-31T03:43:50;23.00;1.00
1361;DHT22;674;45.552;-122.600;2023-07-31T03:46:24;22.90;1.00
1361;DHT22;674;45.552;-122.600;2023-07-31T03:48:53;22.80;1.00
1361;DHT22;674;45.552;-122.600;2023-07-31T03:51:22;22.70;1.00
1361;DHT22;674;45.552;-122.600;2023-07-31T03:53:50;22.60;1.00
1361;DHT22;674;45.552;-122.600;2023-07-31T03:56:19;22.50;1.00
1361;DHT22;674;45.552;-122.600;2023-07-31T03:58:47;22.40;1.00
1361;DHT22;674;45.552;-122.600;2023-07-31T04:01:16;22.30;1.00
1361;DHT22;674;45.552;-122.600;2023-07-31T04:03:45;22.30;1.00
1361;DHT22;674;45.552;-122.600;2023-07-31T04:06:14;22.20;1.00
1361;DHT22;674;45.552;-122.600;2023-07-31T04:08:46;22.20;1.00
1361;DHT22;674;45.552;-122.600;2023-07-31T04:11:14;22.10;1.00
1361;DHT22;674;45.552;-122.600;2023-07-31T04:13:43;22.10;1.00
1361;DHT22;674;45.552;-122.600;2023-07-31T04:16:11;22.00;1.00
1361;DHT22;674;45.552;-122.600;2023-07-31T04:18:40;22.00;1.00
1361;DHT22;674;45.552;-122.600;2023-07-31T04:21:12;21.90;1.00
1361;DHT22;674;45.552;-122.600;2023-07-31T04:23:43;21.80;1.00
1361;DHT22;674;45.552;-122.600;2023-07-31T04:26:12;21.70;1.00
1361;DHT22;674;45.552;-122.600;2023-07-31T04:28:41;21.70;1.00
1361;DHT22;674;45.552;-122.600;2023-07-31T04:31:09;21.60;1.00
1361;DHT22;674;45.552;-122.600;2023-07-31T04:33:38;21.50;1.00
1361;DHT22;674;45.552;-122.600;2023-07-31T04:36:06;21.50;1.00
1361;DHT22;674;45.552;-122.600;2023-07-31T04:38:35;21.40;1.00
1361;DHT22;674;45.552;-122.600;2023-07-31T04:41:03;21.40;1.00
1361;DHT22;674;45.552;-122.600;2023-07-31T04:43:36;21.30;1.00
1361;DHT22;674;45.552;-122.600;2023-07-31T04:46:08;21.30;1.00
1361;DHT22;674;45.552;-122.600;2023-07-31T04:48:37;21.20;1.00
1361;DHT22;674;45.552;-122.600;2023-07-31T04:51:06;21.20;1.00
1361;DHT22;674;45.552;-122.600;2023-07-31T04:53:34;21.20;1.00
1361;DHT22;674;45.552;-122.600;2023-07-31T04:56:03;21.00;1.00
1361;DHT22;674;45.552;-122.600;2023-07-31T04:58:32;21.00;1.00
1361;DHT22;674;45.552;-122.600;2023-07-31T05:01:00;21.00;1.00
1361;DHT22;674;45.552;-122.600;2023-07-31T05:03:29;20.90;1.00
1361;DHT22;674;45.552;-122.600;2023-07-31T05:05:58;20.90;1.00
1361;DHT22;674;45.552;-122.600;2023-07-31T05:08:26;20.90;1.00
1361;DHT22;674;45.552;-122.600;2023-07-31T05:10:55;20.80;1.00
1361;DHT22;674;45.552;-122.600;2023-07-31T05:13:23;20.70;1.00
1361;DHT22;674;45.552;-122.600;2023-07-31T05:15:52;20.70;1.00
1361;DHT22;674;45.552;-122.600;2023-07-31T05:18:20;20.70;1.00
1361;DHT22;674;45.552;-122.600;2023-07-31T05:20:49;20.60;1.00
1361;DHT22;674;45.552;-122.600;2023-07-31T05:23:18;20.50;1.00
1361;DHT22;674;45.552;-122.600;2023-07-31T05:25:46;20.40;1.00
1361;DHT22;674;45.552;-122.600;2023-07-31T05:28:15;20.40;1.00
1361;DHT22;674;45.552;-122.600;2023-07-31T05:30:43;20.30;1.00
1361;DHT22;674;45.552;-122.600;2023-07-31T05:33:12;20.30;1.00
1361;DHT22;674;45.552;-122.600;2023-07-31T05:35:41;20.30;1.00
1361;DHT22;674;45.552;-122.600;2023-07-31T05:38:11;20.30;1.00
1361;DHT22;674;45.552;-122.600;2023-07-31T05:40:40;20.20;1.00
1361;DHT22;674;45.552;-122.600;2023-07-31T05:43:10;20.20;1.00
1361;DHT22;674;45.552;-122.600;2023-07-31T05:45:39;20.10;1.00
1361;DHT22;674;45.552;-122.600;2023-07-31T05:48:08;20.10;1.00
1361;DHT22;674;45.552;-122.600;2023-07-31T05:50:38;20.00;1.00
1361;DHT22;674;45.552;-122.600;2023-07-31T05:53:07;19.90;1.00
1361;DHT22;674;45.552;-122.600;2023-07-31T05:55:36;19.80;1.00
1361;DHT22;674;45.552;-122.600;2023-07-31T05:58:04;19.80;1.00
1361;DHT22;674;45.552;-122.600;2023-07-31T06:00:33;19.80;1.00
1361;DHT22;674;45.552;-122.600;2023-07-31T06:03:02;19.70;1.00
1361;DHT22;674;45.552;-122.600;2023-07-31T06:05:36;19.60;1.00
1361;DHT22;674;45.552;-122.600;2023-07-31T06:08:05;19.70;1.00
1361;DHT22;674;45.552;-122.600;2023-07-31T06:10:34;19.60;1.00
1361;DHT22;674;45.552;-122.600;2023-07-31T06:13:03;19.60;1.00
1361;DHT22;674;45.552;-122.600;2023-07-31T06:15:32;19.50;1.00
1361;DHT22;674;45.552;-122.600;2023-07-31T06:18:01;19.50;1.00
1361;DHT22;674;45.552;-122.600;2023-07-31T06:20:35;19.40;1.00
1361;DHT22;674;45.552;-122.600;2023-07-31T06:23:07;19.40;1.00
1361;DHT22;674;45.552;-122.600;2023-07-31T06:25:36;19.30;1.00
1361;DHT22;674;45.552;-122.600;2023-07-31T06:28:05;19.30;1.00
1361;DHT22;674;45.552;-122.600;2023-07-31T06:30:34;19.30;1.00
1361;DHT22;674;45.552;-122.600;2023-07-31T06:33:02;19.30;1.00
1361;DHT22;674;45.552;-122.600;2023-07-31T06:35:31;19.20;1.00
1361;DHT22;674;45.552;-122.600;2023-07-31T06:37:59;19.20;1.00
1361;DHT22;674;45.552;-122.600;2023-07-31T06:40:28;19.10;1.00
1361;DHT22;674;45.552;-122.600;2023-07-31T06:42:57;19.00;1.00
1361;DHT22;674;45.552;-122.600;2023-07-31T06:45:25;19.00;1.00
1361;DHT22;674;45.552;-122.600;2023-07-31T06:47:54;19.00;1.00
1361;DHT22;674;45.552;-122.600;2023-07-31T06:50:24;19.00;1.00
1361;DHT22;674;45.552;-122.600;2023-07-31T06:52:53;18.90;1.00
1361;DHT22;674;45.552;-122.600;2023-07-31T06:55:22;18.90;1.00
1361;DHT22;674;45.552;-122.600;2023-07-31T06:57:53;18.90;1.00
1361;DHT22;674;45.552;-122.600;2023-07-31T07:00:22;18.80;1.00
1361;DHT22;674;45.552;-122.600;2023-07-31T07:02:51;18.80;1.00
1361;DHT22;674;45.552;-122.600;2023-07-31T07:05:20;18.80;1.00
1361;DHT22;674;45.552;-122.600;2023-07-31T07:07:50;18.70;1.00
1361;DHT22;674;45.552;-122.600;2023-07-31T07:10:21;18.70;1.00
1361;DHT22;674;45.552;-122.600;2023-07-31T07:12:50;18.60;1.00
1361;DHT22;674;45.552;-122.600;2023-07-31T07:15:18;18.60;1.00
1361;DHT22;674;45.552;-122.600;2023-07-31T07:17:47;18.60;1.00
1361;DHT22;674;45.552;-122.600;2023-07-31T07:20:16;18.60;1.00
1361;DHT22;674;45.552;-122.600;2023-07-31T07:22:44;18.60;1.00
1361;DHT22;674;45.552;-122.600;2023-07-31T07:25:13;18.60;1.00
1361;DHT22;674;45.552;-122.600;2023-07-31T07:27:41;18.50;1.00
1361;DHT22;674;45.552;-122.600;2023-07-31T07:30:10;18.50;1.00
1361;DHT22;674;45.552;-122.600;2023-07-31T07:32:39;18.50;1.00
1361;DHT22;674;45.552;-122.600;2023-07-31T07:35:08;18.40;1.00
1361;DHT22;674;45.552;-122.600;2023-07-31T07:37:36;18.40;1.00
1361;DHT22;674;45.552;-122.600;2023-07-31T07:40:05;18.40;1.00
1361;DHT22;674;45.552;-122.600;2023-07-31T07:42:34;18.30;1.00
1361;DHT22;674;45.552;-122.600;2023-07-31T07:45:02;18.20;1.00
1361;DHT22;674;45.552;-122.600;2023-07-31T07:47:31;18.20;1.00
1361;DHT22;674;45.552;-122.600;2023-07-31T07:50:00;18.20;1.00
1361;DHT22;674;45.552;-122.600;2023-07-31T07:52:28;18.10;1.00
1361;DHT22;674;45.552;-122.600;2023-07-31T07:54:57;18.10;1.00
1361;DHT22;674;45.552;-122.600;2023-07-31T07:57:25;18.10;1.00
1361;DHT22;674;45.552;-122.600;2023-07-31T07:59:54;18.10;1.00
1361;DHT22;674;45.552;-122.600;2023-07-31T08:02:22;18.10;1.00
1361;DHT22;674;45.552;-122.600;2023-07-31T08:04:51;18.10;1.00
1361;DHT22;674;45.552;-122.600;2023-07-31T08:07:20;18.00;1.00
1361;DHT22;674;45.552;-122.600;2023-07-31T08:09:48;18.00;1.00
1361;DHT22;674;45.552;-122.600;2023-07-31T08:12:17;18.00;1.00
1361;DHT22;674;45.552;-122.600;2023-07-31T08:14:45;18.00;1.00
1361;DHT22;674;45.552;-122.600;2023-07-31T08:17:14;17.90;1.00
1361;DHT22;674;45.552;-122.600;2023-07-31T08:19:42;17.90;1.00
1361;DHT22;674;45.552;-122.600;2023-07-31T08:22:12;17.90;1.00
1361;DHT22;674;45.552;-122.600;2023-07-31T08:24:40;17.90;1.00
1361;DHT22;674;45.552;-122.600;2023-07-31T08:27:08;17.90;1.00
1361;DHT22;674;45.552;-122.600;2023-07-31T08:29:37;17.90;1.00
1361;DHT22;674;45.552;-122.600;2023-07-31T08:32:09;17.80;1.00
1361;DHT22;674;45.552;-122.600;2023-07-31T08:34:37;17.80;1.00
1361;DHT22;674;45.552;-122.600;2023-07-31T08:37:06;17.80;1.00
1361;DHT22;674;45.552;-122.600;2023-07-31T08:39:34;17.80;1.00
1361;DHT22;674;45.552;-122.600;2023-07-31T08:42:03;17.80;1.00
1361;DHT22;674;45.552;-122.600;2023-07-31T08:44:32;17.80;1.00
1361;DHT22;674;45.552;-122.600;2023-07-31T08:47:01;17.70;1.00
1361;DHT22;674;45.552;-122.600;2023-07-31T08:49:31;17.70;1.00
1361;DHT22;674;45.552;-122.600;2023-07-31T08:52:00;17.60;1.00
1361;DHT22;674;45.552;-122.600;2023-07-31T08:54:29;17.60;1.00
1361;DHT22;674;45.552;-122.600;2023-07-31T08:56:59;17.60;1.00
1361;DHT22;674;45.552;-122.600;2023-07-31T08:59:32;17.60;1.00
1361;DHT22;674;45.552;-122.600;2023-07-31T09:02:06;17.60;1.00
1361;DHT22;674;45.552;-122.600;2023-07-31T09:04:36;17.50;1.00
1361;DHT22;674;45.552;-122.600;2023-07-31T09:07:05;17.50;1.00
1361;DHT22;674;45.552;-122.600;2023-07-31T09:09:34;17.50;1.00
1361;DHT22;674;45.552;-122.600;2023-07-31T09:12:03;17.50;1.00
1361;DHT22;674;45.552;-122.600;2023-07-31T09:14:32;17.40;1.00
1361;DHT22;674;45.552;-122.600;2023-07-31T09:17:01;17.40;1.00
1361;DHT22;674;45.552;-122.600;2023-07-31T09:19:33;17.40;1.00
1361;DHT22;674;45.552;-122.600;2023-07-31T09:22:02;17.40;1.00
1361;DHT22;674;45.552;-122.600;2023-07-31T09:24:32;17.30;1.00
1361;DHT22;674;45.552;-122.600;2023-07-31T09:27:02;17.30;1.00
1361;DHT22;674;45.552;-122.600;2023-07-31T09:29:30;17.30;1.00
1361;DHT22;674;45.552;-122.600;2023-07-31T09:31:59;17.20;1.00
1361;DHT22;674;45.552;-122.600;2023-07-31T09:34:37;17.20;1.00
1361;DHT22;674;45.552;-122.600;2023-07-31T09:37:08;17.20;1.00
1361;DHT22;674;45.552;-122.600;2023-07-31T09:39:47;17.10;1.00
1361;DHT22;674;45.552;-122.600;2023-07-31T09:42:26;17.10;1.00
1361;DHT22;674;45.552;-122.600;2023-07-31T09:44:54;17.10;1.00
1361;DHT22;674;45.552;-122.600;2023-07-31T09:47:35;17.10;1.00
1361;DHT22;674;45.552;-122.600;2023-07-31T09:50:07;17.00;1.00
1361;DHT22;674;45.552;-122.600;2023-07-31T09:52:38;17.00;1.00
1361;DHT22;674;45.552;-122.600;2023-07-31T09:55:08;17.00;1.00
1361;DHT22;674;45.552;-122.600;2023-07-31T09:57:46;17.00;1.00
1361;DHT22;674;45.552;-122.600;2023-07-31T10:00:17;17.00;1.00
1361;DHT22;674;45.552;-122.600;2023-07-31T10:02:46;17.00;1.00
1361;DHT22;674;45.552;-122.600;2023-07-31T10:05:16;16.90;1.00
1361;DHT22;674;45.552;-122.600;2023-07-31T10:07:54;16.90;1.00
1361;DHT22;674;45.552;-122.600;2023-07-31T10:10:24;16.90;1.00
1361;DHT22;674;45.552;-122.600;2023-07-31T10:12:54;16.90;1.00
1361;DHT22;674;45.552;-122.600;2023-07-31T10:15:24;16.90;1.00
1361;DHT22;674;45.552;-122.600;2023-07-31T10:17:54;16.90;1.00
1361;DHT22;674;45.552;-122.600;2023-07-31T10:20:24;16.90;1.00
1361;DHT22;674;45.552;-122.600;2023-07-31T10:22:55;16.90;1.00
1361;DHT22;674;45.552;-122.600;2023-07-31T10:25:26;16.80;1.00
1361;DHT22;674;45.552;-122.600;2023-07-31T10:27:54;16.80;1.00
1361;DHT22;674;45.552;-122.600;2023-07-31T10:30:30;16.80;1.00
1361;DHT22;674;45.552;-122.600;2023-07-31T10:33:01;16.80;1.00
1361;DHT22;674;45.552;-122.600;2023-07-31T10:35:30;16.70;1.00
1361;DHT22;674;45.552;-122.600;2023-07-31T10:38:19;16.60;1.00
1361;DHT22;674;45.552;-122.600;2023-07-31T10:40:50;16.60;1.00
1361;DHT22;674;45.552;-122.600;2023-07-31T10:43:25;16.60;1.00
1361;DHT22;674;45.552;-122.600;2023-07-31T10:45:58;16.60;1.00
1361;DHT22;674;45.552;-122.600;2023-07-31T10:48:33;16.50;1.00
1361;DHT22;674;45.552;-122.600;2023-07-31T10:51:08;16.50;1.00
1361;DHT22;674;45.552;-122.600;2023-07-31T10:53:39;16.50;1.00
1361;DHT22;674;45.552;-122.600;2023-07-31T10:56:09;16.50;1.00
1361;DHT22;674;45.552;-122.600;2023-07-31T10:58:44;16.40;1.00
1361;DHT22;674;45.552;-122.600;2023-07-31T11:01:14;16.40;1.00
1361;DHT22;674;45.552;-122.600;2023-07-31T11:03:50;16.40;1.00
1361;DHT22;674;45.552;-122.600;2023-07-31T11:06:21;16.40;1.00
1361;DHT22;674;45.552;-122.600;2023-07-31T11:08:50;16.40;1.00
1361;DHT22;674;45.552;-122.600;2023-07-31T11:11:20;16.30;1.00
1361;DHT22;674;45.552;-122.600;2023-07-31T11:13:50;16.30;1.00
1361;DHT22;674;45.552;-122.600;2023-07-31T11:16:24;16.30;1.00
1361;DHT22;674;45.552;-122.600;2023-07-31T11:18:53;16.30;1.00
1361;DHT22;674;45.552;-122.600;2023-07-31T11:21:24;16.20;1.00
1361;DHT22;674;45.552;-122.600;2023-07-31T11:23:56;16.20;1.00
1361;DHT22;674;45.552;-122.600;2023-07-31T11:26:28;16.20;1.00
1361;DHT22;674;45.552;-122.600;2023-07-31T11:28:58;16.10;1.00
1361;DHT22;674;45.552;-122.600;2023-07-31T11:31:27;16.10;1.00
1361;DHT22;674;45.552;-122.600;2023-07-31T11:34:13;16.10;1.00
1361;DHT22;674;45.552;-122.600;2023-07-31T11:36:53;16.10;1.00
1361;DHT22;674;45.552;-122.600;2023-07-31T11:39:22;16.00;1.00
1361;DHT22;674;45.552;-122.600;2023-07-31T11:41:51;16.00;1.00
1361;DHT22;674;45.552;-122.600;2023-07-31T11:44:20;16.00;1.00
1361;DHT22;674;45.552;-122.600;2023-07-31T11:46:57;16.00;1.00
1361;DHT22;674;45.552;-122.600;2023-07-31T11:49:26;15.90;1.00
1361;DHT22;674;45.552;-122.600;2023-07-31T11:51:55;15.90;1.00
1361;DHT22;674;45.552;-122.600;2023-07-31T11:54:23;15.80;1.00
1361;DHT22;674;45.552;-122.600;2023-07-31T11:56:52;15.80;1.00
1361;DHT22;674;45.552;-122.600;2023-07-31T11:59:21;15.80;1.00
1361;DHT22;674;45.552;-122.600;2023-07-31T12:01:50;15.80;1.00
1361;DHT22;674;45.552;-122.600;2023-07-31T12:04:21;15.70;1.00
1361;DHT22;674;45.552;-122.600;2023-07-31T12:06:52;15.70;1.00
1361;DHT22;674;45.552;-122.600;2023-07-31T12:09:25;15.70;1.00
1361;DHT22;674;45.552;-122.600;2023-07-31T12:11:54;15.60;1.00
1361;DHT22;674;45.552;-122.600;2023-07-31T12:14:27;15.60;1.00
1361;DHT22;674;45.552;-122.600;2023-07-31T12:17:04;15.50;1.00
1361;DHT22;674;45.552;-122.600;2023-07-31T12:19:33;15.50;1.00
1361;DHT22;674;45.552;-122.600;2023-07-31T12:22:10;15.50;1.00
1361;DHT22;674;45.552;-122.600;2023-07-31T12:24:40;15.50;1.00
1361;DHT22;674;45.552;-122.600;2023-07-31T12:27:14;15.40;1.00
1361;DHT22;674;45.552;-122.600;2023-07-31T12:29:43;15.40;1.00
1361;DHT22;674;45.552;-122.600;2023-07-31T12:32:22;15.40;1.00
1361;DHT22;674;45.552;-122.600;2023-07-31T12:34:53;15.30;1.00
1361;DHT22;674;45.552;-122.600;2023-07-31T12:37:21;15.30;1.00
1361;DHT22;674;45.552;-122.600;2023-07-31T12:39:50;15.30;1.00
1361;DHT22;674;45.552;-122.600;2023-07-31T12:42:18;15.30;1.00
1361;DHT22;674;45.552;-122.600;2023-07-31T12:44:47;15.20;1.00
1361;DHT22;674;45.552;-122.600;2023-07-31T12:47:15;15.20;1.00
1361;DHT22;674;45.552;-122.600;2023-07-31T12:49:44;15.20;1.00
1361;DHT22;674;45.552;-122.600;2023-07-31T12:52:13;15.20;1.00
1361;DHT22;674;45.552;-122.600;2023-07-31T12:54:41;15.10;1.00
1361;DHT22;674;45.552;-122.600;2023-07-31T12:57:10;15.10;1.00
1361;DHT22;674;45.552;-122.600;2023-07-31T12:59:38;15.10;1.00
1361;DHT22;674;45.552;-122.600;2023-07-31T13:02:07;15.10;1.00
1361;DHT22;674;45.552;-122.600;2023-07-31T13:04:35;15.10;1.00
1361;DHT22;674;45.552;-122.600;2023-07-31T13:07:04;15.10;1.00
1361;DHT22;674;45.552;-122.600;2023-07-31T13:09:32;15.10;1.00
1361;DHT22;674;45.552;-122.600;2023-07-31T13:12:01;15.00;1.00
1361;DHT22;674;45.552;-122.600;2023-07-31T13:14:29;15.10;1.00
1361;DHT22;674;45.552;-122.600;2023-07-31T13:16:58;15.10;1.00
1361;DHT22;674;45.552;-122.600;2023-07-31T13:19:26;15.00;1.00
1361;DHT22;674;45.552;-122.600;2023-07-31T13:21:55;15.00;1.00
1361;DHT22;674;45.552;-122.600;2023-07-31T13:24:24;15.00;1.00
1361;DHT22;674;45.552;-122.600;2023-07-31T13:26:52;15.00;1.00
1361;DHT22;674;45.552;-122.600;2023-07-31T13:29:21;15.00;1.00
1361;DHT22;674;45.552;-122.600;2023-07-31T13:31:50;15.10;1.00
1361;DHT22;674;45.552;-122.600;2023-07-31T13:34:18;15.00;1.00
1361;DHT22;674;45.552;-122.600;2023-07-31T13:36:47;15.00;1.00
1361;DHT22;674;45.552;-122.600;2023-07-31T13:39:15;15.10;1.00
1361;DHT22;674;45.552;-122.600;2023-07-31T13:41:44;15.10;1.00
1361;DHT22;674;45.552;-122.600;2023-07-31T13:44:12;15.10;1.00
1361;DHT22;674;45.552;-122.600;2023-07-31T13:46:41;15.10;1.00
1361;DHT22;674;45.552;-122.600;2023-07-31T13:49:10;15.10;1.00
1361;DHT22;674;45.552;-122.600;2023-07-31T13:51:39;15.10;1.00
1361;DHT22;674;45.552;-122.600;2023-07-31T13:54:07;15.10;1.00
1361;DHT22;674;45.552;-122.600;2023-07-31T13:56:36;15.20;1.00
1361;DHT22;674;45.552;-122.600;2023-07-31T13:59:05;15.20;1.00
1361;DHT22;674;45.552;-122.600;2023-07-31T14:01:33;15.20;1.00
1361;DHT22;674;45.552;-122.600;2023-07-31T14:04:02;15.30;1.00
1361;DHT22;674;45.552;-122.600;2023-07-31T14:06:30;15.30;1.00
1361;DHT22;674;45.552;-122.600;2023-07-31T14:08:59;15.40;4.60
1361;DHT22;674;45.552;-122.600;2023-07-31T14:11:28;15.50;16.70
1361;DHT22;674;45.552;-122.600;2023-07-31T14:13:56;15.50;12.40
1361;DHT22;674;45.552;-122.600;2023-07-31T14:16:25;15.60;2.60
1361;DHT22;674;45.552;-122.600;2023-07-31T14:18:54;15.70;1.00
1361;DHT22;674;45.552;-122.600;2023-07-31T14:21:23;15.80;1.00
1361;DHT22;674;45.552;-122.600;2023-07-31T14:23:51;15.90;1.00
1361;DHT22;674;45.552;-122.600;2023-07-31T14:26:20;15.90;1.00
1361;DHT22;674;45.552;-122.600;2023-07-31T14:28:48;16.00;1.00
1361;DHT22;674;45.552;-122.600;2023-07-31T14:31:17;16.00;1.00
1361;DHT22;674;45.552;-122.600;2023-07-31T14:33:46;16.10;1.00
1361;DHT22;674;45.552;-122.600;2023-07-31T14:36:14;16.10;1.00
1361;DHT22;674;45.552;-122.600;2023-07-31T14:38:43;16.20;1.00
1361;DHT22;674;45.552;-122.600;2023-07-31T14:41:11;16.20;1.00
1361;DHT22;674;45.552;-122.600;2023-07-31T14:43:40;16.40;1.00
1361;DHT22;674;45.552;-122.600;2023-07-31T14:46:08;16.40;1.00
1361;DHT22;674;45.552;-122.600;2023-07-31T14:48:37;16.40;1.00
1361;DHT22;674;45.552;-122.600;2023-07-31T14:51:05;16.50;1.00
1361;DHT22;674;45.552;-122.600;2023-07-31T14:53:34;16.50;1.00
1361;DHT22;674;45.552;-122.600;2023-07-31T14:56:02;16.60;1.00
1361;DHT22;674;45.552;-122.600;2023-07-31T14:58:31;16.60;1.00
1361;DHT22;674;45.552;-122.600;2023-07-31T15:00:59;16.60;1.00
1361;DHT22;674;45.552;-122.600;2023-07-31T15:03:28;16.70;1.00
1361;DHT22;674;45.552;-122.600;2023-07-31T15:05:56;16.70;1.00
1361;DHT22;674;45.552;-122.600;2023-07-31T15:08:25;16.80;1.00
1361;DHT22;674;45.552;-122.600;2023-07-31T15:10:55;16.80;1.00
1361;DHT22;674;45.552;-122.600;2023-07-31T15:13:28;16.80;1.00
1361;DHT22;674;45.552;-122.600;2023-07-31T15:15:56;16.90;1.00
1361;DHT22;674;45.552;-122.600;2023-07-31T15:18:26;17.00;1.00
1361;DHT22;674;45.552;-122.600;2023-07-31T15:20:54;17.10;1.00
1361;DHT22;674;45.552;-122.600;2023-07-31T15:23:23;17.10;1.00
1361;DHT22;674;45.552;-122.600;2023-07-31T15:25:52;17.20;1.00
1361;DHT22;674;45.552;-122.600;2023-07-31T15:28:20;17.20;1.00
1361;DHT22;674;45.552;-122.600;2023-07-31T15:30:49;17.20;1.00
1361;DHT22;674;45.552;-122.600;2023-07-31T15:33:17;17.30;1.00
1361;DHT22;674;45.552;-122.600;2023-07-31T15:35:46;17.30;1.00
1361;DHT22;674;45.552;-122.600;2023-07-31T15:38:14;17.40;1.00
1361;DHT22;674;45.552;-122.600;2023-07-31T15:40:43;17.40;1.00
1361;DHT22;674;45.552;-122.600;2023-07-31T15:43:12;17.40;1.00
1361;DHT22;674;45.552;-122.600;2023-07-31T15:45:40;17.60;1.00
1361;DHT22;674;45.552;-122.600;2023-07-31T15:48:09;17.60;1.00
1361;DHT22;674;45.552;-122.600;2023-07-31T15:50:37;17.60;1.00
1361;DHT22;674;45.552;-122.600;2023-07-31T15:53:06;17.60;1.00
1361;DHT22;674;45.552;-122.600;2023-07-31T15:55:34;17.70;1.00
1361;DHT22;674;45.552;-122.600;2023-07-31T15:58:03;17.80;1.00
1361;DHT22;674;45.552;-122.600;2023-07-31T16:00:33;17.90;1.00
1361;DHT22;674;45.552;-122.600;2023-07-31T16:03:02;17.80;1.00
1361;DHT22;674;45.552;-122.600;2023-07-31T16:05:30;17.90;1.00